This is the latest recevied weather packets stored in our database for station/object KC3UTO. If no packets are shown the sender has not sent any weather packets the latest 10 day(s).
| Time | Temp. | Humidity | Pressure | Rain* | Wind** | Luminosity | Snow |
|---|---|---|---|---|---|---|---|
| 1777481523 | 17.78° C | 54% | 1012.3 hPa | 0 mm | - | 394 W/m² | - |
| 1777480612 | 17.78° C | 54% | 1012.5 hPa | 0 mm | - | 479 W/m² | - |
| 1777480309 | 17.78° C | 54% | 1012.5 hPa | 0 mm | - | 426 W/m² | - |
| 1777480005 | 17.78° C | 54% | 1012.5 hPa | 0 mm | - | 412 W/m² | - |
| 1777478490 | 17.22° C | 53% | 1013.3 hPa | 0 mm | - | 546 W/m² | - |
| 1777478187 | 17.22° C | 54% | 1013.2 hPa | 0 mm | - | 569 W/m² | - |
| 1777477883 | 16.67° C | 55% | 1013.2 hPa | 0 mm | - | 524 W/m² | - |
| 1777476670 | 15.56° C | 56% | 1013.7 hPa | 0 mm | - | 368 W/m² | - |
| 1777473330 | 14.44° C | 59% | 1014.1 hPa | 0 mm | - | 242 W/m² | - |
| 1777473026 | 14.44° C | 59% | 1013.9 hPa | 0 mm | - | 291 W/m² | - |
| 1777472117 | 13.89° C | 60% | 1013.9 hPa | 0 mm | - | 309 W/m² | - |
| 1777469388 | 13.89° C | 58% | 1014.3 hPa | 0 mm | - | 325 W/m² | - |
| 1777468778 | 13.89° C | 59% | 1014.2 hPa | 0 mm | - | 443 W/m² | - |
| 1777468475 | 12.78° C | 61% | 1014.3 hPa | 0 mm | - | 405 W/m² | - |
| 1777468172 | 12.78° C | 62% | 1014.4 hPa | 0 mm | - | 208 W/m² | - |
| 1777467259 | 12.22° C | 63% | 1014.3 hPa | 0 mm | - | 93 W/m² | - |
| 1777466349 | 12.22° C | 62% | 1014.5 hPa | 0 mm | - | 89 W/m² | - |
| 1777466046 | 12.22° C | 63% | 1014.6 hPa | 0 mm | - | 82 W/m² | - |
| 1777465742 | 12.22° C | 60% | 1014.7 hPa | 0 mm | - | 68 W/m² | - |
| 1777465438 | 12.22° C | 61% | 1014.7 hPa | 0 mm | - | 68 W/m² | - |
| 1777465137 | 12.22° C | 59% | 1014.9 hPa | 0 mm | - | 64 W/m² | - |
| 1777464832 | 12.22° C | 60% | 1014.7 hPa | 0 mm | - | 101 W/m² | - |
| 1777464528 | 12.22° C | 60% | 1014.6 hPa | 0 mm | - | 103 W/m² | - |
| 1777464224 | 11.67° C | 62% | 1014.7 hPa | 0 mm | - | 78 W/m² | - |
| 1777463924 | 11.67° C | 62% | 1014.8 hPa | 0 mm | - | 55 W/m² | - |
* Rain latest hour (hover to see other rain measurements)
** Current wind speed in m/s (hover to see current wind gust speed)